Time;durP1;ratioP1;P1;durP2;ratioP2;P2;SDS_P1;SDS_P2;PMS_P1;PMS_P2;Temp;Humidity;BMP_temperature;BMP_pressure;BME280_temperature;BME280_humidity;BME280_pressure;Samples;Min_cycle;Max_cycle;Signal;HPM_P1;HPM_P2
2022/09/12 00:02:24;;;;;;;12.68;6.32;;;14.70;99.90;;;;;;5114795;28;20081;-57
2022/09/12 00:04:50;;;;;;;13.48;5.70;;;14.80;99.90;;;;;;5115161;28;20027;-57
2022/09/12 00:07:16;;;;;;;11.55;6.10;;;14.80;99.90;;;;;;5115098;28;20545;-57
2022/09/12 00:09:42;;;;;;;10.27;5.00;;;14.80;99.90;;;;;;5115046;28;20028;-57
2022/09/12 00:12:08;;;;;;;10.52;5.93;;;14.80;99.90;;;;;;5113903;28;20024;-57
2022/09/12 00:14:34;;;;;;;18.33;6.15;;;14.90;99.90;;;;;;5114978;28;20485;-57
2022/09/12 00:17:00;;;;;;;13.05;5.90;;;14.80;99.90;;;;;;5115055;28;20501;-57
2022/09/12 00:19:27;;;;;;;11.90;6.25;;;14.80;99.90;;;;;;5115024;28;20031;-56
2022/09/12 00:21:54;;;;;;;19.48;7.85;;;14.80;99.90;;;;;;5114828;28;20117;-57
2022/09/12 00:24:20;;;;;;;16.42;8.10;;;14.70;99.90;;;;;;5114955;28;20031;-57
2022/09/12 00:26:47;;;;;;;20.30;8.35;;;14.70;99.90;;;;;;5114972;28;20027;-57
2022/09/12 00:29:18;;;;;;;15.98;7.65;;;14.70;99.90;;;;;;5114700;28;20040;-56
2022/09/12 00:31:44;;;;;;;15.02;6.88;;;14.70;99.90;;;;;;5119239;28;20063;-57
2022/09/12 00:34:10;;;;;;;20.50;7.00;;;14.70;99.90;;;;;;5119183;28;20023;-57
2022/09/12 00:36:37;;;;;;;14.52;7.35;;;14.70;99.90;;;;;;5119121;28;20023;-57
2022/09/12 00:39:03;;;;;;;12.35;6.43;;;14.70;99.90;;;;;;5119102;28;20100;-57
2022/09/12 00:41:35;;;;;;;7.50;5.40;;;14.70;99.90;;;;;;5118928;28;20023;-56
2022/09/12 00:44:23;;;;;;;11.98;5.85;;;14.70;99.90;;;;;;5118860;28;20023;-57
2022/09/12 00:47:07;;;;;;;14.07;5.53;;;14.60;99.90;;;;;;5117698;28;20081;-56
2022/09/12 00:49:53;;;;;;;16.70;6.30;;;14.60;99.90;;;;;;5118800;28;20397;-56
2022/09/12 00:52:35;;;;;;;15.85;5.68;;;14.70;99.90;;;;;;5118807;28;20042;-57
2022/09/12 00:55:01;;;;;;;9.38;5.75;;;14.70;99.90;;;;;;5118716;28;20028;-57
2022/09/12 00:57:34;;;;;;;14.38;5.47;;;14.60;99.90;;;;;;5118633;28;20028;-57
2022/09/12 01:00:16;;;;;;;9.45;5.88;;;14.60;99.90;;;;;;5118804;28;20062;-56
2022/09/12 01:02:49;;;;;;;12.85;6.95;;;14.60;99.90;;;;;;5118797;28;20038;-56
2022/09/12 01:05:16;;;;;;;15.30;6.45;;;14.60;99.90;;;;;;5118248;28;20059;-57
2022/09/12 01:07:43;;;;;;;11.27;6.03;;;14.60;99.90;;;;;;5118427;28;20043;-56
2022/09/12 01:10:10;;;;;;;13.07;6.18;;;14.50;99.90;;;;;;5118478;28;20427;-56
2022/09/12 01:12:40;;;;;;;11.90;6.10;;;14.50;99.90;;;;;;5118306;28;20047;-56
2022/09/12 01:15:06;;;;;;;9.73;5.30;;;14.50;99.90;;;;;;5118361;28;20058;-56
2022/09/12 01:18:03;;;;;;;11.77;5.60;;;14.50;99.90;;;;;;5118283;28;20066;-57
2022/09/12 01:21:03;;;;;;;16.77;5.43;;;14.50;99.90;;;;;;5118112;28;20067;-57
2022/09/12 01:24:17;;;;;;;11.63;4.88;;;14.60;99.90;;;;;;5118023;28;20036;-56
2022/09/12 01:26:56;;;;;;;7.72;4.93;;;14.70;99.90;;;;;;5104275;28;20457;-57
2022/09/12 01:29:55;;;;;;;12.30;6.57;;;14.70;99.90;;;;;;5118038;28;20037;-56
2022/09/12 01:32:33;;;;;;;13.32;6.22;;;14.70;99.90;;;;;;5117963;28;20034;-56
2022/09/12 01:35:21;;;;;;;13.20;6.57;;;14.60;99.90;;;;;;5117990;28;20028;-57
2022/09/12 01:38:06;;;;;;;14.38;6.80;;;14.50;99.90;;;;;;5117969;28;20114;-56
2022/09/12 01:40:58;;;;;;;14.25;5.60;;;14.40;99.90;;;;;;5117507;28;20457;-56
2022/09/12 01:43:58;;;;;;;14.65;5.22;;;14.30;99.90;;;;;;5117915;28;20121;-56
2022/09/12 01:46:36;;;;;;;9.55;5.00;;;14.30;99.90;;;;;;5117648;28;20028;-56
2022/09/12 01:49:31;;;;;;;12.25;5.45;;;14.30;99.90;;;;;;5117827;28;20410;-56
2022/09/12 01:52:27;;;;;;;10.68;5.30;;;14.20;99.90;;;;;;5116153;28;20108;-56
2022/09/12 01:54:59;;;;;;;17.88;6.00;;;14.10;99.90;;;;;;5117684;28;20024;-56
2022/09/12 01:57:38;;;;;;;10.90;5.65;;;14.10;99.90;;;;;;5117558;28;20019;-56
2022/09/12 02:00:09;;;;;;;12.20;5.00;;;14.20;99.90;;;;;;5117534;28;20081;-56
2022/09/12 02:03:03;;;;;;;15.00;5.88;;;14.20;99.90;;;;;;5117254;28;20027;-56
2022/09/12 02:05:38;;;;;;;11.63;5.35;;;14.00;99.90;;;;;;5117550;28;20026;-56
2022/09/12 02:08:27;;;;;;;11.52;5.47;;;13.90;99.90;;;;;;5117374;28;20035;-56
2022/09/12 02:10:58;;;;;;;11.80;5.80;;;13.90;99.90;;;;;;5117793;28;20023;-56
2022/09/12 02:13:34;;;;;;;14.45;5.93;;;13.90;99.90;;;;;;5116098;28;20077;-56
2022/09/12 02:16:09;;;;;;;11.77;5.22;;;13.90;99.90;;;;;;5116960;28;20054;-56
2022/09/12 02:18:38;;;;;;;13.25;4.72;;;13.90;99.90;;;;;;5117124;28;20034;-56
2022/09/12 02:21:05;;;;;;;12.93;4.45;;;13.90;99.90;;;;;;5117225;28;20039;-56
2022/09/12 02:23:35;;;;;;;16.00;5.55;;;13.80;99.90;;;;;;5117074;28;20036;-56
2022/09/12 02:26:09;;;;;;;10.07;5.45;;;13.70;99.90;;;;;;5117044;28;20036;-56
2022/09/12 02:28:40;;;;;;;8.20;5.03;;;13.70;99.90;;;;;;5116915;28;20030;-56
2022/09/12 02:31:22;;;;;;;6.93;4.75;;;13.70;99.90;;;;;;5116941;28;20024;-56
2022/09/12 02:34:07;;;;;;;15.57;5.43;;;13.70;99.90;;;;;;5116987;28;20053;-56
2022/09/12 02:37:04;;;;;;;10.95;5.90;;;13.70;99.90;;;;;;5116871;28;20110;-56
2022/09/12 02:39:31;;;;;;;14.50;5.10;;;13.70;99.90;;;;;;5101941;28;20123;-56
2022/09/12 02:41:59;;;;;;;10.50;5.10;;;13.80;99.90;;;;;;5116744;28;20024;-56
2022/09/12 02:44:28;;;;;;;11.35;5.35;;;13.80;99.90;;;;;;5116683;28;20030;-56
2022/09/12 02:46:59;;;;;;;12.05;5.22;;;13.90;99.90;;;;;;5116649;28;20023;-56
2022/09/12 02:49:25;;;;;;;11.13;5.75;;;13.90;99.90;;;;;;5116447;28;20469;-56
2022/09/12 02:51:51;;;;;;;10.23;5.97;;;13.90;99.90;;;;;;5116712;28;20116;-56
2022/09/12 02:54:18;;;;;;;17.70;6.50;;;13.80;99.90;;;;;;5115844;28;20543;-56
2022/09/12 02:56:45;;;;;;;20.50;5.72;;;13.70;99.90;;;;;;5116675;28;20079;-56
2022/09/12 02:59:15;;;;;;;19.05;5.80;;;13.70;99.90;;;;;;5116275;28;20090;-56
2022/09/12 03:02:02;;;;;;;15.10;6.32;;;13.70;99.90;;;;;;5116391;27;20057;-56
2022/09/12 03:04:43;;;;;;;19.48;6.75;;;13.60;99.90;;;;;;5116234;28;20427;-56
2022/09/12 03:07:15;;;;;;;18.13;7.15;;;13.60;99.90;;;;;;5116153;28;20023;-56
2022/09/12 03:10:10;;;;;;;15.88;6.72;;;13.70;99.90;;;;;;5116146;28;20093;-56
2022/09/12 03:12:51;;;;;;;15.00;6.65;;;13.60;99.90;;;;;;5099595;28;20035;-56
2022/09/12 03:15:39;;;;;;;14.23;7.03;;;13.60;99.90;;;;;;5116084;28;20024;-56
2022/09/12 03:18:31;;;;;;;13.30;6.38;;;13.50;99.90;;;;;;5115969;28;20066;-56
2022/09/12 03:21:18;;;;;;;14.60;7.95;;;13.40;99.90;;;;;;5115756;28;20431;-56
2022/09/12 03:24:10;;;;;;;19.20;7.95;;;13.50;99.90;;;;;;5095420;28;20031;-56
2022/09/12 03:26:48;;;;;;;12.80;7.25;;;13.50;99.90;;;;;;5095505;28;20059;-56
2022/09/12 03:29:16;;;;;;;18.42;7.15;;;13.50;99.90;;;;;;5095196;28;20448;-56
2022/09/12 03:31:54;;;;;;;14.70;7.07;;;13.50;99.90;;;;;;5095589;28;20031;-56
2022/09/12 03:34:21;;;;;;;15.40;6.82;;;13.40;99.90;;;;;;5095207;28;20017;-56
2022/09/12 03:36:48;;;;;;;19.13;7.18;;;13.40;99.90;;;;;;5095546;28;20081;-56
2022/09/12 03:39:14;;;;;;;13.63;6.25;;;13.40;99.90;;;;;;5095117;28;20437;-56
2022/09/12 03:41:40;;;;;;;14.98;6.53;;;13.40;99.90;;;;;;5094949;28;20035;-56
2022/09/12 03:44:06;;;;;;;21.88;7.53;;;13.40;99.90;;;;;;5095213;28;20028;-56
2022/09/12 03:46:32;;;;;;;12.60;6.35;;;13.30;99.90;;;;;;5095096;28;20035;-56
2022/09/12 03:48:58;;;;;;;16.45;6.82;;;13.20;99.90;;;;;;5094809;28;20028;-56
2022/09/12 03:51:24;;;;;;;17.30;6.93;;;13.30;99.90;;;;;;5094953;28;20039;-56
2022/09/12 03:53:50;;;;;;;18.60;7.13;;;13.30;99.90;;;;;;5094967;28;20031;-56
2022/09/12 03:56:18;;;;;;;11.85;6.38;;;13.30;99.90;;;;;;5094904;28;20377;-56
2022/09/12 03:58:44;;;;;;;15.20;7.22;;;13.20;99.90;;;;;;5094887;28;20477;-56
2022/09/12 04:01:14;;;;;;;17.88;7.47;;;13.20;99.90;;;;;;5094783;28;20020;-56
2022/09/12 04:03:45;;;;;;;15.30;7.30;;;13.10;99.90;;;;;;5094763;28;20034;-56
2022/09/12 04:06:14;;;;;;;17.25;7.25;;;13.10;99.90;;;;;;5094854;28;20106;-56
2022/09/12 04:08:41;;;;;;;14.05;6.68;;;13.20;99.90;;;;;;5094632;28;20356;-56
2022/09/12 04:11:11;;;;;;;14.07;7.22;;;13.20;99.90;;;;;;5094823;28;20032;-56
2022/09/12 04:13:40;;;;;;;13.80;6.18;;;13.10;99.90;;;;;;5095110;28;20070;-56
2022/09/12 04:16:06;;;;;;;16.77;6.55;;;13.10;99.90;;;;;;5094620;28;20386;-56
2022/09/12 04:18:33;;;;;;;12.00;7.22;;;13.20;99.90;;;;;;5094498;28;20028;-56
2022/09/12 04:21:06;;;;;;;15.60;7.45;;;13.20;99.90;;;;;;5094543;28;20032;-56
2022/09/12 04:23:33;;;;;;;17.85;7.03;;;13.30;99.90;;;;;;5113189;28;20407;-56
2022/09/12 04:26:01;;;;;;;13.57;7.65;;;13.40;99.90;;;;;;5114836;28;20477;-56
2022/09/12 04:28:28;;;;;;;17.30;8.18;;;13.40;99.90;;;;;;5114918;28;20035;-56
2022/09/12 04:30:54;;;;;;;15.68;7.80;;;13.40;99.90;;;;;;5114954;28;20028;-56
2022/09/12 04:33:21;;;;;;;15.23;7.53;;;13.60;99.90;;;;;;5114937;28;20027;-56
2022/09/12 04:35:47;;;;;;;18.15;8.60;;;13.70;99.90;;;;;;5114883;28;20102;-56
2022/09/12 04:38:13;;;;;;;15.02;7.75;;;13.80;99.90;;;;;;5114724;28;20110;-56
2022/09/12 04:40:39;;;;;;;23.77;9.07;;;13.90;99.90;;;;;;5114862;28;20476;-56
2022/09/12 04:43:05;;;;;;;12.90;7.63;;;13.90;99.90;;;;;;5114715;28;20066;-56
2022/09/12 04:45:32;;;;;;;16.23;7.90;;;13.80;99.90;;;;;;5114795;28;20268;-56
2022/09/12 04:47:59;;;;;;;17.05;8.90;;;13.90;99.90;;;;;;5114545;28;20059;-56
2022/09/12 04:50:25;;;;;;;17.50;8.63;;;13.90;99.90;;;;;;5114343;28;20046;-56
2022/09/12 04:52:52;;;;;;;16.48;7.63;;;13.90;99.90;;;;;;5114828;28;20106;-56
2022/09/12 04:55:18;;;;;;;14.80;7.10;;;13.90;99.90;;;;;;5114683;28;20032;-56
2022/09/12 04:57:44;;;;;;;11.40;6.75;;;13.90;99.90;;;;;;5114590;28;20054;-56
2022/09/12 05:00:14;;;;;;;12.10;7.22;;;13.90;99.90;;;;;;5114473;28;20024;-56
2022/09/12 05:02:40;;;;;;;13.75;7.55;;;14.00;99.90;;;;;;5114502;28;20026;-56
2022/09/12 05:05:07;;;;;;;14.70;7.88;;;13.90;99.90;;;;;;5114643;28;20423;-56
2022/09/12 05:07:33;;;;;;;20.65;8.52;;;14.00;99.90;;;;;;5112828;28;20024;-56
2022/09/12 05:09:59;;;;;;;15.02;7.43;;;13.90;99.90;;;;;;5114465;28;20058;-56
2022/09/12 05:12:26;;;;;;;15.63;6.97;;;14.00;99.90;;;;;;5114476;28;20016;-56
2022/09/12 05:14:52;;;;;;;13.13;7.43;;;14.00;99.90;;;;;;5114387;28;20411;-56
2022/09/12 05:17:17;;;;;;;11.27;7.30;;;14.00;99.90;;;;;;5115438;28;20032;-56
2022/09/12 05:19:43;;;;;;;10.15;7.00;;;14.10;99.90;;;;;;5107843;28;20028;-56
2022/09/12 05:22:09;;;;;;;12.80;6.85;;;14.20;99.90;;;;;;5103509;28;20039;-56
2022/09/12 05:24:38;;;;;;;13.00;6.95;;;14.30;99.90;;;;;;5115401;27;20015;-56
2022/09/12 05:27:04;;;;;;;41.15;8.20;;;14.30;99.90;;;;;;5110822;27;20478;-56
2022/09/12 05:29:30;;;;;;;17.15;6.95;;;14.40;99.90;;;;;;5113644;28;20031;-56
2022/09/12 05:31:56;;;;;;;15.35;6.80;;;14.50;99.90;;;;;;5110809;28;20474;-56
2022/09/12 05:34:22;;;;;;;18.23;6.35;;;14.50;99.90;;;;;;5104464;28;20077;-56
2022/09/12 05:36:48;;;;;;;10.40;5.13;;;14.60;99.90;;;;;;5109341;28;20039;-56
2022/09/12 05:39:14;;;;;;;17.65;6.60;;;14.60;99.90;;;;;;5115228;28;20031;-56
2022/09/12 05:41:41;;;;;;;14.82;6.05;;;14.60;99.90;;;;;;5117011;28;20015;-56
2022/09/12 05:44:11;;;;;;;12.98;6.47;;;14.70;99.90;;;;;;5114677;28;20024;-56
2022/09/12 05:46:42;;;;;;;15.77;6.72;;;14.90;99.90;;;;;;5109177;28;20028;-56
2022/09/12 05:49:11;;;;;;;17.90;5.97;;;15.00;99.90;;;;;;5109489;28;20050;-56
2022/09/12 05:51:40;;;;;;;9.68;4.78;;;15.10;99.90;;;;;;5101723;27;20040;-56
2022/09/12 05:54:09;;;;;;;15.30;5.65;;;15.20;99.90;;;;;;5114758;28;20028;-56
2022/09/12 05:56:42;;;;;;;19.88;6.55;;;15.50;99.90;;;;;;5113103;28;20024;-56
2022/09/12 05:59:20;;;;;;;15.23;7.68;;;15.80;99.90;;;;;;5114686;28;20036;-56
2022/09/12 06:01:47;;;;;;;16.25;8.35;;;15.80;99.90;;;;;;5107368;28;20068;-56
2022/09/12 06:04:13;;;;;;;31.30;12.80;;;15.90;99.90;;;;;;5116181;28;20431;-56
2022/09/12 06:06:43;;;;;;;39.38;13.05;;;16.20;99.90;;;;;;5114048;28;20089;-56
2022/09/12 06:09:10;;;;;;;47.97;16.38;;;16.50;99.90;;;;;;5109872;28;20476;-56
2022/09/12 06:11:39;;;;;;;96.80;28.73;;;16.80;99.90;;;;;;5102282;28;20069;-56
2022/09/12 06:14:06;;;;;;;113.43;33.58;;;17.00;99.90;;;;;;5108467;27;20129;-56
2022/09/12 06:16:34;;;;;;;107.20;36.85;;;17.30;99.90;;;;;;5112800;28;20407;-56
2022/09/12 06:19:11;;;;;;;107.57;32.63;;;17.30;99.90;;;;;;5103288;28;20034;-56
2022/09/12 06:21:38;;;;;;;94.70;32.30;;;17.50;99.90;;;;;;5107009;28;20027;-56
2022/09/12 06:24:06;;;;;;;88.07;30.42;;;17.60;99.90;;;;;;5103518;28;20127;-56
2022/09/12 06:26:32;;;;;;;82.28;29.05;;;18.00;99.90;;;;;;5117301;28;20099;-56
2022/09/12 06:28:59;;;;;;;88.72;30.50;;;18.10;99.90;;;;;;5116029;28;20028;-57
2022/09/12 06:31:28;;;;;;;83.97;30.98;;;18.50;99.90;;;;;;5115575;28;20496;-57
2022/09/12 06:33:56;;;;;;;83.05;31.45;;;18.70;99.90;;;;;;5116784;27;20019;-57
2022/09/12 06:36:27;;;;;;;86.63;30.17;;;18.80;99.90;;;;;;5116794;27;20023;-57
2022/09/12 06:39:01;;;;;;;85.10;29.38;;;19.00;99.90;;;;;;5098557;28;20050;-57
2022/09/12 06:41:29;;;;;;;91.88;30.00;;;19.20;99.90;;;;;;5096778;28;20028;-57
2022/09/12 06:43:56;;;;;;;74.57;26.08;;;19.40;99.90;;;;;;5096616;28;20331;-57
2022/09/12 06:46:22;;;;;;;72.25;26.95;;;19.50;99.90;;;;;;5112116;28;20023;-57
2022/09/12 06:48:49;;;;;;;85.90;31.58;;;19.80;99.90;;;;;;5116215;28;20485;-57
2022/09/12 06:51:17;;;;;;;81.80;29.13;;;20.00;99.90;;;;;;5098961;28;20051;-57
2022/09/12 06:53:44;;;;;;;75.10;28.83;;;20.30;99.90;;;;;;5112327;28;20119;-57
2022/09/12 06:56:13;;;;;;;85.40;29.00;;;20.40;99.90;;;;;;5096679;28;20026;-57
2022/09/12 06:58:40;;;;;;;84.88;29.15;;;20.90;99.90;;;;;;5107470;28;20477;-57
2022/09/12 07:01:14;;;;;;;79.57;27.17;;;21.40;99.10;;;;;;5108166;28;20026;-57
2022/09/12 07:03:40;;;;;;;79.82;26.35;;;21.50;94.90;;;;;;5107511;28;20020;-57
2022/09/12 07:06:13;;;;;;;70.68;22.70;;;21.60;94.20;;;;;;5104517;28;20154;-57
2022/09/12 07:08:39;;;;;;;42.78;16.33;;;21.90;94.20;;;;;;5114468;28;20098;-57
2022/09/12 07:11:19;;;;;;;43.30;15.63;;;22.10;91.50;;;;;;5115023;27;20020;-58
2022/09/12 07:13:47;;;;;;;42.00;15.23;;;22.60;89.60;;;;;;5113627;28;20019;-57
2022/09/12 07:16:14;;;;;;;35.95;15.45;;;22.70;91.50;;;;;;5111970;27;20028;-58
2022/09/12 07:19:12;;;;;;;46.33;16.88;;;22.40;90.10;;;;;;5106485;28;20047;-58
2022/09/12 07:21:38;;;;;;;46.88;18.05;;;22.70;90.50;;;;;;5105543;28;20473;-58
2022/09/12 07:24:05;;;;;;;29.23;13.40;;;23.10;88.40;;;;;;5094216;28;20027;-58
2022/09/12 07:26:31;;;;;;;29.83;12.32;;;23.00;85.50;;;;;;5116304;28;20115;-58
2022/09/12 07:28:58;;;;;;;18.38;8.07;;;22.70;85.30;;;;;;5115726;28;20097;-58
2022/09/12 07:31:25;;;;;;;17.83;6.53;;;22.80;83.70;;;;;;5116218;28;20035;-58
2022/09/12 07:33:52;;;;;;;10.18;4.50;;;23.10;82.20;;;;;;5115191;28;20008;-58
2022/09/12 07:36:22;;;;;;;5.40;3.35;;;23.20;81.50;;;;;;5115949;28;20027;-58
2022/09/12 07:38:52;;;;;;;9.88;3.38;;;23.60;79.50;;;;;;5115497;28;20059;-58
2022/09/12 07:41:19;;;;;;;;;;;23.70;78.10;;;;;;5113289;28;20035;-58
2022/09/12 07:43:46;;;;;;;13.65;3.40;;;24.00;78.00;;;;;;5115415;28;19908;-58
2022/09/12 07:46:13;;;;;;;7.53;3.38;;;23.70;76.50;;;;;;5114457;28;20043;-58
2022/09/12 07:48:39;;;;;;;7.25;3.22;;;23.90;75.20;;;;;;5114208;28;20027;-58
2022/09/12 07:51:09;;;;;;;8.50;3.70;;;24.30;74.90;;;;;;5114101;28;20051;-58
2022/09/12 07:53:40;;;;;;;7.70;3.78;;;24.20;72.90;;;;;;5114888;28;20024;-58
2022/09/12 07:56:07;;;;;;;5.95;3.38;;;24.30;73.50;;;;;;5113822;28;20024;-58
2022/09/12 07:58:35;;;;;;;6.07;3.20;;;24.50;73.50;;;;;;5115200;28;20163;-58
2022/09/12 08:01:08;;;;;;;11.13;4.15;;;24.70;74.30;;;;;;5114884;28;20039;-58
2022/09/12 08:03:35;;;;;;;7.00;3.10;;;24.90;69.90;;;;;;5115198;28;20430;-58
2022/09/12 08:06:09;;;;;;;18.05;4.57;;;24.80;67.80;;;;;;5114727;28;20031;-58
2022/09/12 08:08:35;;;;;;;5.97;3.92;;;25.00;67.90;;;;;;5115026;28;20042;-58
2022/09/12 08:11:05;;;;;;;7.57;3.78;;;24.50;68.60;;;;;;5111670;28;20047;-58
2022/09/12 08:13:33;;;;;;;8.82;4.47;;;24.20;68.30;;;;;;5114791;28;20055;-58
2022/09/12 08:15:59;;;;;;;4.75;3.50;;;24.20;68.90;;;;;;5114815;28;20038;-58
2022/09/12 08:18:31;;;;;;;7.35;4.72;;;24.00;67.70;;;;;;5113089;28;20030;-58
2022/09/12 08:21:02;;;;;;;9.98;4.68;;;24.00;67.60;;;;;;5114619;28;20039;-58
2022/09/12 08:23:28;;;;;;;6.72;4.38;;;23.80;66.10;;;;;;5114467;28;20050;-58
2022/09/12 08:25:56;;;;;;;10.05;4.82;;;23.60;67.00;;;;;;5114886;28;20111;-58
2022/09/12 08:28:23;;;;;;;8.45;3.83;;;23.70;67.40;;;;;;5114537;28;20028;-58
2022/09/12 08:30:49;;;;;;;7.53;4.03;;;23.80;69.20;;;;;;5113403;28;20027;-58
2022/09/12 08:33:14;;;;;;;15.30;5.43;;;23.70;66.80;;;;;;5101905;28;20032;-57
2022/09/12 08:35:40;;;;;;;7.57;3.95;;;23.60;66.00;;;;;;5107926;28;20028;-58
2022/09/12 08:38:06;;;;;;;7.38;3.35;;;23.60;66.30;;;;;;5103732;28;20046;-57
2022/09/12 08:40:39;;;;;;;6.63;3.42;;;23.60;65.30;;;;;;5106602;28;20392;-57
2022/09/12 08:43:23;;;;;;;9.60;3.80;;;23.30;63.50;;;;;;5108413;28;20079;-57
2022/09/12 08:45:59;;;;;;;10.50;5.72;;;23.20;65.90;;;;;;5107362;28;20035;-57
2022/09/12 08:48:25;;;;;;;6.53;3.72;;;23.00;65.60;;;;;;5103524;28;20358;-58
2022/09/12 08:50:51;;;;;;;8.57;4.28;;;22.70;66.90;;;;;;5107888;28;20473;-58
2022/09/12 08:53:21;;;;;;;16.48;5.32;;;23.30;68.10;;;;;;5104392;28;20071;-57
2022/09/12 08:55:58;;;;;;;7.13;3.65;;;23.20;65.70;;;;;;5113641;28;20060;-58
2022/09/12 08:58:27;;;;;;;10.02;4.50;;;23.90;66.60;;;;;;5107816;28;20034;-58
2022/09/12 09:01:11;;;;;;;7.85;4.32;;;23.80;64.10;;;;;;5111301;28;20373;-57
2022/09/12 09:04:00;;;;;;;9.93;4.80;;;24.20;62.90;;;;;;5106688;28;20517;-58
2022/09/12 09:06:31;;;;;;;7.65;4.20;;;24.30;64.50;;;;;;5118239;28;20059;-58
2022/09/12 09:09:18;;;;;;;8.18;4.32;;;23.80;61.50;;;;;;5118299;28;20051;-58
2022/09/12 09:12:22;;;;;;;6.95;3.90;;;23.50;62.40;;;;;;5118278;28;20096;-58
2022/09/12 09:14:56;;;;;;;15.45;5.53;;;24.00;61.70;;;;;;5082718;28;20047;-58
2022/09/12 09:17:25;;;;;;;5.65;3.97;;;24.20;62.30;;;;;;5117868;28;20035;-58
2022/09/12 09:20:20;;;;;;;10.93;4.30;;;24.10;62.20;;;;;;5117949;28;20106;-58
2022/09/12 09:22:53;;;;;;;8.18;4.30;;;24.30;61.60;;;;;;5113236;28;20575;-58
2022/09/12 09:25:21;;;;;;;10.45;5.13;;;25.20;63.10;;;;;;5118127;28;20062;-58
2022/09/12 09:27:53;;;;;;;13.07;6.00;;;25.40;59.00;;;;;;5117859;28;20435;-58
2022/09/12 09:30:22;;;;;;;6.18;3.78;;;25.70;60.70;;;;;;5117854;28;20034;-58
2022/09/12 09:32:53;;;;;;;11.33;3.93;;;26.00;58.20;;;;;;5117971;28;20031;-58
2022/09/12 09:35:31;;;;;;;5.70;3.78;;;26.50;59.30;;;;;;5117876;28;20492;-58
2022/09/12 09:38:03;;;;;;;8.32;3.83;;;26.70;56.90;;;;;;5117717;28;20020;-58
2022/09/12 09:40:49;;;;;;;8.68;4.25;;;26.40;54.30;;;;;;5117622;28;20031;-58
2022/09/12 09:43:23;;;;;;;7.45;3.63;;;26.00;56.00;;;;;;5117490;28;20385;-58
2022/09/12 09:45:50;;;;;;;9.35;3.80;;;26.40;54.40;;;;;;5117905;28;20111;-58
2022/09/12 09:48:25;;;;;;;6.72;3.80;;;26.60;53.70;;;;;;5117459;28;20484;-58
2022/09/12 09:50:52;;;;;;;10.98;4.25;;;26.30;54.40;;;;;;5117329;28;20409;-58
2022/09/12 09:53:47;;;;;;;4.88;3.70;;;26.20;54.90;;;;;;5117339;28;20528;-58
2022/09/12 09:56:38;;;;;;;7.20;3.50;;;26.40;54.80;;;;;;5117569;28;20089;-58
2022/09/12 09:59:16;;;;;;;6.50;3.65;;;26.50;53.60;;;;;;5117399;27;20027;-58
2022/09/12 10:01:50;;;;;;;4.32;2.80;;;26.00;53.10;;;;;;5117343;28;20032;-58
2022/09/12 10:04:27;;;;;;;7.03;3.30;;;25.80;55.00;;;;;;5116938;28;20059;-58
2022/09/12 10:06:56;;;;;;;12.00;4.07;;;25.50;53.60;;;;;;5117020;28;20023;-58
2022/09/12 10:09:28;;;;;;;8.15;3.63;;;25.50;58.20;;;;;;5117218;28;20423;-58
2022/09/12 10:11:56;;;;;;;4.90;2.92;;;25.90;55.80;;;;;;5110701;28;20486;-58
2022/09/12 10:14:33;;;;;;;14.98;4.95;;;26.00;58.10;;;;;;5109941;28;20110;-58
2022/09/12 10:17:02;;;;;;;7.65;3.15;;;26.10;53.60;;;;;;5112940;28;20027;-58
2022/09/12 10:19:39;;;;;;;4.70;3.60;;;25.90;54.60;;;;;;5111692;28;20032;-58
2022/09/12 10:22:06;;;;;;;5.90;3.47;;;25.60;54.60;;;;;;5116814;28;20419;-58
2022/09/12 10:24:38;;;;;;;9.25;3.50;;;25.90;56.40;;;;;;5116389;28;20042;-58
2022/09/12 10:27:12;;;;;;;8.68;3.33;;;26.10;52.40;;;;;;5106275;28;20077;-58
2022/09/12 10:29:44;;;;;;;8.05;2.83;;;26.00;52.80;;;;;;5106211;28;20599;-58
2022/09/12 10:32:25;;;;;;;12.93;4.72;;;25.50;51.10;;;;;;5109085;28;20020;-58
2022/09/12 10:34:55;;;;;;;4.47;2.70;;;25.60;54.30;;;;;;5110772;28;20034;-58
2022/09/12 10:37:33;;;;;;;4.90;3.65;;;26.30;53.10;;;;;;5110182;28;20043;-58
2022/09/12 10:40:02;;;;;;;10.05;4.05;;;26.90;52.70;;;;;;5101706;28;20096;-58
2022/09/12 10:42:45;;;;;;;9.60;4.22;;;27.00;52.90;;;;;;5116091;28;20034;-58
2022/09/12 10:45:21;;;;;;;5.13;3.40;;;27.40;51.10;;;;;;5116478;28;20102;-58
2022/09/12 10:47:48;;;;;;;8.30;4.00;;;27.50;49.20;;;;;;5114995;28;20114;-58
2022/09/12 10:50:40;;;;;;;7.25;3.30;;;26.80;49.90;;;;;;5116169;28;20052;-58
2022/09/12 10:53:19;;;;;;;3.90;2.15;;;26.60;50.90;;;;;;5116323;28;20028;-58
2022/09/12 10:56:05;;;;;;;8.75;3.25;;;26.40;52.90;;;;;;5116365;28;20059;-58
2022/09/12 10:59:03;;;;;;;3.33;2.40;;;26.60;51.40;;;;;;5116159;28;20558;-58
2022/09/12 11:01:47;;;;;;;8.82;2.47;;;26.60;50.20;;;;;;5113084;28;20035;-58
2022/09/12 11:04:13;;;;;;;6.47;3.17;;;27.20;48.00;;;;;;5115951;28;20447;-58
2022/09/12 11:07:13;;;;;;;6.45;3.50;;;27.40;49.10;;;;;;5116257;28;20060;-58
2022/09/12 11:09:57;;;;;;;5.20;2.97;;;27.30;47.20;;;;;;5115977;28;20511;-58
2022/09/12 11:12:32;;;;;;;6.32;3.55;;;26.10;51.80;;;;;;5110236;28;20027;-58
2022/09/12 11:15:06;;;;;;;3.42;2.80;;;26.00;50.60;;;;;;5111661;28;20024;-58
2022/09/12 11:17:51;;;;;;;5.32;3.13;;;26.00;51.80;;;;;;5113590;28;20422;-58
2022/09/12 11:20:29;;;;;;;5.80;2.80;;;25.80;52.20;;;;;;5115715;28;20027;-58
2022/09/12 11:23:21;;;;;;;9.60;4.30;;;26.00;52.90;;;;;;5115744;28;20039;-58
2022/09/12 11:26:08;;;;;;;11.50;3.45;;;26.20;50.80;;;;;;5115968;28;20362;-58
2022/09/12 11:28:55;;;;;;;7.82;2.83;;;26.90;52.20;;;;;;5115646;28;20059;-58
2022/09/12 11:31:40;;;;;;;4.55;2.90;;;27.10;49.80;;;;;;5115503;28;20028;-58
2022/09/12 11:34:10;;;;;;;4.80;2.63;;;26.60;50.70;;;;;;5115746;28;20099;-58
2022/09/12 11:36:48;;;;;;;10.75;3.85;;;26.50;49.80;;;;;;5115336;28;20027;-58
2022/09/12 11:39:16;;;;;;;5.85;2.75;;;26.10;51.40;;;;;;5102414;28;20036;-58
2022/09/12 11:41:50;;;;;;;3.05;2.17;;;26.70;50.90;;;;;;5115285;28;20478;-58
2022/09/12 11:44:28;;;;;;;3.67;2.22;;;27.00;48.90;;;;;;5115331;28;20026;-58
2022/09/12 11:46:54;;;;;;;13.30;3.13;;;26.90;49.20;;;;;;5115419;28;20028;-58
2022/09/12 11:49:44;;;;;;;9.40;3.08;;;26.40;48.20;;;;;;5115309;28;20358;-58
2022/09/12 11:52:21;;;;;;;16.38;3.83;;;26.20;51.40;;;;;;5114772;28;20496;-58
2022/09/12 11:55:29;;;;;;;7.85;3.13;;;26.20;51.10;;;;;;5115384;28;20541;-58
2022/09/12 11:57:57;;;;;;;4.95;2.10;;;26.90;49.10;;;;;;5109230;28;20110;-58
2022/09/12 12:00:35;;;;;;;8.93;2.85;;;27.50;48.80;;;;;;5106272;28;20119;-58
2022/09/12 12:03:12;;;;;;;7.07;2.88;;;27.90;46.40;;;;;;5094834;28;20020;-58
2022/09/12 12:06:00;;;;;;;2.50;1.67;;;27.90;45.20;;;;;;5094531;28;20474;-58
2022/09/12 12:08:28;;;;;;;4.68;2.40;;;27.40;45.40;;;;;;5095890;28;20027;-58
2022/09/12 12:11:01;;;;;;;6.95;3.00;;;26.90;49.40;;;;;;5114843;28;20099;-58
2022/09/12 12:13:49;;;;;;;5.05;2.25;;;27.40;49.70;;;;;;5114940;28;20103;-58
2022/09/12 12:16:24;;;;;;;6.00;1.80;;;26.80;51.30;;;;;;5114698;28;20481;-58
2022/09/12 12:19:01;;;;;;;5.15;2.92;;;27.50;48.30;;;;;;5114676;28;20032;-58
2022/09/12 12:21:28;;;;;;;4.63;2.42;;;27.00;46.40;;;;;;5114524;28;20035;-58
2022/09/12 12:24:09;;;;;;;11.25;2.50;;;27.20;48.30;;;;;;5115057;28;20045;-58
2022/09/12 12:26:37;;;;;;;3.22;1.83;;;27.50;47.70;;;;;;5114542;28;20024;-58
2022/09/12 12:29:12;;;;;;;5.22;2.20;;;27.60;47.20;;;;;;5113095;28;20028;-58
2022/09/12 12:32:02;;;;;;;3.53;1.77;;;28.00;46.60;;;;;;5113114;28;20112;-58
2022/09/12 12:34:35;;;;;;;4.10;1.70;;;28.10;45.10;;;;;;5114580;28;20061;-58
2022/09/12 12:37:20;;;;;;;5.07;2.25;;;28.10;45.30;;;;;;5114496;28;20107;-58
2022/09/12 12:39:46;;;;;;;3.97;1.98;;;28.10;45.40;;;;;;5114403;28;20095;-58
2022/09/12 12:42:31;;;;;;;3.20;1.98;;;28.10;44.90;;;;;;5114281;28;20081;-58
2022/09/12 12:44:58;;;;;;;3.33;1.90;;;28.20;43.20;;;;;;5114731;28;20027;-59
2022/09/12 12:47:39;;;;;;;8.60;2.35;;;27.60;46.10;;;;;;5114312;28;20039;-58
2022/09/12 12:50:11;;;;;;;;;;;27.50;45.00;;;;;;5114696;28;20421;-58
2022/09/12 12:52:50;;;;;;;5.20;2.35;;;27.00;44.70;;;;;;5114303;28;19915;-58
2022/09/12 12:55:34;;;;;;;2.67;1.83;;;27.30;46.40;;;;;;5111665;28;20022;-58
2022/09/12 12:58:05;;;;;;;4.85;2.53;;;27.50;46.40;;;;;;5113323;28;20415;-59
2022/09/12 13:00:37;;;;;;;4.93;2.03;;;27.70;44.50;;;;;;5114018;28;20037;-59
2022/09/12 13:03:04;;;;;;;6.35;3.00;;;27.90;44.40;;;;;;5104031;28;20028;-58
2022/09/12 13:05:45;;;;;;;3.10;1.95;;;28.00;45.40;;;;;;5100562;28;20032;-58
2022/09/12 13:08:31;;;;;;;5.47;2.55;;;28.10;45.40;;;;;;5093530;28;20028;-59
2022/09/12 13:11:04;;;;;;;9.23;2.67;;;27.60;44.70;;;;;;5093966;28;20032;-59
2022/09/12 13:13:48;;;;;;;10.32;4.15;;;27.60;45.30;;;;;;5093797;28;20477;-58